KMLE

Millard Airport

Omaha, Nebraska, USA
METAR KMLE 180235Z AUTO 00000KT 7SM CLR 00/M02 A3001 RMK AO2 T10051023
Observed Flight Rules
Dec-18 @ 02:35 UTC (23 minutes ago) Visual Flight Rules
Wind Visibility Clouds
Calm 7 miles
  • Clear skies
Temperatures Readings
Current -1°C / 30°F
Dewpoint -2°C / 28°F
Humidity 93%
Altimeter 30.01" Hg
Pressure 1016 hPa
Elevation 320
METAR KMLE 180235Z AUTO 00000KT 7SM CLR 00/M02 A3001 RMK AO2 T10051023
Observed Flight Rules
Dec-18 @ 02:35 UTC
(23 minutes ago)
VFR
Wind Visibility
Calm 7 miles
Clouds
  • Clear skies
Temperature Dewpoint
-1°C / 30°F -2°C / 28°F
Humidity Altimeter Pressure
93% 30.01" Hg 1016 hPa